sensor_id;sensor_type;location;lat;lon;timestamp;temperature;humidity
24011;DHT22;12217;50.792;4.372;2023-04-03T00:01:07;7.10;99.90
24011;DHT22;12217;50.792;4.372;2023-04-03T00:03:33;7.10;99.90
24011;DHT22;12217;50.792;4.372;2023-04-03T00:05:59;7.10;99.90
24011;DHT22;12217;50.792;4.372;2023-04-03T00:08:25;7.10;99.90
24011;DHT22;12217;50.792;4.372;2023-04-03T00:10:51;7.00;99.90
24011;DHT22;12217;50.792;4.372;2023-04-03T00:13:16;7.10;99.90
24011;DHT22;12217;50.792;4.372;2023-04-03T00:15:43;7.00;99.90
24011;DHT22;12217;50.792;4.372;2023-04-03T00:18:09;7.00;99.90
24011;DHT22;12217;50.792;4.372;2023-04-03T00:20:34;7.00;99.90
24011;DHT22;12217;50.792;4.372;2023-04-03T00:23:01;7.00;99.90
24011;DHT22;12217;50.792;4.372;2023-04-03T00:25:27;6.90;99.90
24011;DHT22;12217;50.792;4.372;2023-04-03T00:27:53;6.90;99.90
24011;DHT22;12217;50.792;4.372;2023-04-03T00:30:20;6.90;99.90
24011;DHT22;12217;50.792;4.372;2023-04-03T00:32:48;6.80;99.90
24011;DHT22;12217;50.792;4.372;2023-04-03T00:35:14;6.70;99.90
24011;DHT22;12217;50.792;4.372;2023-04-03T00:37:41;6.70;99.90
24011;DHT22;12217;50.792;4.372;2023-04-03T00:40:08;6.70;99.90
24011;DHT22;12217;50.792;4.372;2023-04-03T00:42:36;6.70;99.90
24011;DHT22;12217;50.792;4.372;2023-04-03T00:47:29;6.70;99.90
24011;DHT22;12217;50.792;4.372;2023-04-03T00:49:55;6.70;99.90
24011;DHT22;12217;50.792;4.372;2023-04-03T00:52:25;6.70;99.90
24011;DHT22;12217;50.792;4.372;2023-04-03T00:54:53;6.70;99.90
24011;DHT22;12217;50.792;4.372;2023-04-03T00:57:21;6.80;99.90
24011;DHT22;12217;50.792;4.372;2023-04-03T00:59:50;6.60;99.90
24011;DHT22;12217;50.792;4.372;2023-04-03T01:02:17;6.60;99.90
24011;DHT22;12217;50.792;4.372;2023-04-03T01:04:43;6.60;99.90
24011;DHT22;12217;50.792;4.372;2023-04-03T01:07:19;6.50;99.90
24011;DHT22;12217;50.792;4.372;2023-04-03T01:09:48;6.50;99.90
24011;DHT22;12217;50.792;4.372;2023-04-03T01:14:45;6.50;99.90
24011;DHT22;12217;50.792;4.372;2023-04-03T01:28:11;6.40;99.90
24011;DHT22;12217;50.792;4.372;2023-04-03T01:30:45;6.40;99.90
24011;DHT22;12217;50.792;4.372;2023-04-03T01:33:12;6.50;99.90
24011;DHT22;12217;50.792;4.372;2023-04-03T01:35:38;6.40;99.90
24011;DHT22;12217;50.792;4.372;2023-04-03T01:38:04;6.40;99.90
24011;DHT22;12217;50.792;4.372;2023-04-03T01:40:29;6.40;99.90
24011;DHT22;12217;50.792;4.372;2023-04-03T01:42:55;6.40;99.90
24011;DHT22;12217;50.792;4.372;2023-04-03T01:45:21;6.30;99.90
24011;DHT22;12217;50.792;4.372;2023-04-03T01:47:46;6.30;99.90
24011;DHT22;12217;50.792;4.372;2023-04-03T01:50:12;6.30;99.90
24011;DHT22;12217;50.792;4.372;2023-04-03T01:52:37;6.30;99.90
24011;DHT22;12217;50.792;4.372;2023-04-03T01:55:03;6.30;99.90
24011;DHT22;12217;50.792;4.372;2023-04-03T01:57:29;6.30;99.90
24011;DHT22;12217;50.792;4.372;2023-04-03T01:59:54;6.40;99.90
24011;DHT22;12217;50.792;4.372;2023-04-03T02:02:20;6.30;99.90
24011;DHT22;12217;50.792;4.372;2023-04-03T02:04:46;6.20;99.90
24011;DHT22;12217;50.792;4.372;2023-04-03T02:07:11;6.20;99.90
24011;DHT22;12217;50.792;4.372;2023-04-03T02:09:37;6.30;99.90
24011;DHT22;12217;50.792;4.372;2023-04-03T02:12:03;6.20;99.90
24011;DHT22;12217;50.792;4.372;2023-04-03T02:14:28;6.20;99.90
24011;DHT22;12217;50.792;4.372;2023-04-03T02:16:54;6.20;99.90
24011;DHT22;12217;50.792;4.372;2023-04-03T02:19:20;6.20;99.90
24011;DHT22;12217;50.792;4.372;2023-04-03T02:21:46;6.20;99.90
24011;DHT22;12217;50.792;4.372;2023-04-03T02:24:11;6.10;99.90
24011;DHT22;12217;50.792;4.372;2023-04-03T02:26:37;6.20;99.90
24011;DHT22;12217;50.792;4.372;2023-04-03T02:29:02;6.20;99.90
24011;DHT22;12217;50.792;4.372;2023-04-03T02:31:28;6.10;99.90
24011;DHT22;12217;50.792;4.372;2023-04-03T02:33:54;6.10;99.90
24011;DHT22;12217;50.792;4.372;2023-04-03T02:36:20;6.10;99.90
24011;DHT22;12217;50.792;4.372;2023-04-03T02:38:45;6.10;99.90
24011;DHT22;12217;50.792;4.372;2023-04-03T02:41:12;6.10;99.90
24011;DHT22;12217;50.792;4.372;2023-04-03T02:43:38;6.10;99.90
24011;DHT22;12217;50.792;4.372;2023-04-03T02:46:04;6.00;99.90
24011;DHT22;12217;50.792;4.372;2023-04-03T02:48:30;6.00;99.90
24011;DHT22;12217;50.792;4.372;2023-04-03T02:50:56;6.00;99.90
24011;DHT22;12217;50.792;4.372;2023-04-03T02:53:22;6.00;99.90
24011;DHT22;12217;50.792;4.372;2023-04-03T02:55:48;6.00;99.90
24011;DHT22;12217;50.792;4.372;2023-04-03T02:58:14;5.90;99.90
24011;DHT22;12217;50.792;4.372;2023-04-03T03:00:40;5.90;99.90
24011;DHT22;12217;50.792;4.372;2023-04-03T03:03:06;5.90;99.90
24011;DHT22;12217;50.792;4.372;2023-04-03T03:05:32;5.90;99.90
24011;DHT22;12217;50.792;4.372;2023-04-03T03:07:57;5.90;99.90
24011;DHT22;12217;50.792;4.372;2023-04-03T03:10:23;5.90;99.90
24011;DHT22;12217;50.792;4.372;2023-04-03T03:12:49;5.90;99.90
24011;DHT22;12217;50.792;4.372;2023-04-03T03:15:14;5.80;99.90
24011;DHT22;12217;50.792;4.372;2023-04-03T03:17:41;5.80;99.90
24011;DHT22;12217;50.792;4.372;2023-04-03T03:20:07;5.80;99.90
24011;DHT22;12217;50.792;4.372;2023-04-03T03:22:33;5.80;99.90
24011;DHT22;12217;50.792;4.372;2023-04-03T03:24:59;5.80;99.90
24011;DHT22;12217;50.792;4.372;2023-04-03T03:27:26;5.70;99.90
24011;DHT22;12217;50.792;4.372;2023-04-03T03:29:51;5.70;99.90
24011;DHT22;12217;50.792;4.372;2023-04-03T03:32:17;5.70;99.90
24011;DHT22;12217;50.792;4.372;2023-04-03T03:34:43;5.70;99.90
24011;DHT22;12217;50.792;4.372;2023-04-03T03:37:08;5.60;99.90
24011;DHT22;12217;50.792;4.372;2023-04-03T03:39:34;5.70;99.90
24011;DHT22;12217;50.792;4.372;2023-04-03T03:41:59;5.70;99.90
24011;DHT22;12217;50.792;4.372;2023-04-03T03:44:25;5.70;99.90
24011;DHT22;12217;50.792;4.372;2023-04-03T03:46:51;5.60;99.90
24011;DHT22;12217;50.792;4.372;2023-04-03T03:49:16;5.60;99.90
24011;DHT22;12217;50.792;4.372;2023-04-03T03:51:42;5.60;99.90
24011;DHT22;12217;50.792;4.372;2023-04-03T03:54:08;5.60;99.90
24011;DHT22;12217;50.792;4.372;2023-04-03T03:56:33;5.60;99.90
24011;DHT22;12217;50.792;4.372;2023-04-03T03:58:59;5.60;99.90
24011;DHT22;12217;50.792;4.372;2023-04-03T04:01:25;5.50;99.90
24011;DHT22;12217;50.792;4.372;2023-04-03T04:03:51;5.60;99.90
24011;DHT22;12217;50.792;4.372;2023-04-03T04:06:19;5.50;99.90
24011;DHT22;12217;50.792;4.372;2023-04-03T04:08:44;5.40;99.90
24011;DHT22;12217;50.792;4.372;2023-04-03T04:11:10;5.40;99.90
24011;DHT22;12217;50.792;4.372;2023-04-03T04:13:36;5.40;99.90
24011;DHT22;12217;50.792;4.372;2023-04-03T04:16:02;5.40;99.90
24011;DHT22;12217;50.792;4.372;2023-04-03T04:18:27;5.40;99.90
24011;DHT22;12217;50.792;4.372;2023-04-03T04:20:53;5.30;99.90
24011;DHT22;12217;50.792;4.372;2023-04-03T04:23:18;5.40;99.90
24011;DHT22;12217;50.792;4.372;2023-04-03T04:25:45;5.40;99.90
24011;DHT22;12217;50.792;4.372;2023-04-03T04:28:12;5.20;99.90
24011;DHT22;12217;50.792;4.372;2023-04-03T04:30:37;5.30;99.90
24011;DHT22;12217;50.792;4.372;2023-04-03T04:33:03;5.20;99.90
24011;DHT22;12217;50.792;4.372;2023-04-03T04:35:29;5.20;99.90
24011;DHT22;12217;50.792;4.372;2023-04-03T04:37:55;5.20;99.90
24011;DHT22;12217;50.792;4.372;2023-04-03T04:40:21;5.20;99.90
24011;DHT22;12217;50.792;4.372;2023-04-03T04:42:46;5.20;99.90
24011;DHT22;12217;50.792;4.372;2023-04-03T04:45:12;5.20;99.90
24011;DHT22;12217;50.792;4.372;2023-04-03T04:47:37;5.10;99.90
24011;DHT22;12217;50.792;4.372;2023-04-03T04:50:03;5.10;99.90
24011;DHT22;12217;50.792;4.372;2023-04-03T04:52:30;5.10;99.90
24011;DHT22;12217;50.792;4.372;2023-04-03T04:54:56;5.10;99.90
24011;DHT22;12217;50.792;4.372;2023-04-03T04:57:21;5.00;99.90
24011;DHT22;12217;50.792;4.372;2023-04-03T04:59:47;5.10;99.90
24011;DHT22;12217;50.792;4.372;2023-04-03T05:02:12;5.10;99.90
24011;DHT22;12217;50.792;4.372;2023-04-03T05:04:38;5.00;99.90
24011;DHT22;12217;50.792;4.372;2023-04-03T05:07:04;5.10;99.90
24011;DHT22;12217;50.792;4.372;2023-04-03T05:09:29;5.10;99.90
24011;DHT22;12217;50.792;4.372;2023-04-03T05:11:55;5.10;99.90
24011;DHT22;12217;50.792;4.372;2023-04-03T05:14:21;5.10;99.90
24011;DHT22;12217;50.792;4.372;2023-04-03T05:16:47;5.20;99.90
24011;DHT22;12217;50.792;4.372;2023-04-03T05:19:13;5.10;99.90
24011;DHT22;12217;50.792;4.372;2023-04-03T05:21:39;5.20;99.90
24011;DHT22;12217;50.792;4.372;2023-04-03T05:24:05;5.20;99.90
24011;DHT22;12217;50.792;4.372;2023-04-03T05:26:34;5.20;99.90
24011;DHT22;12217;50.792;4.372;2023-04-03T05:28:59;5.10;99.90
24011;DHT22;12217;50.792;4.372;2023-04-03T05:31:25;5.00;99.90
24011;DHT22;12217;50.792;4.372;2023-04-03T05:33:51;5.10;99.90
24011;DHT22;12217;50.792;4.372;2023-04-03T05:36:17;5.00;99.90
24011;DHT22;12217;50.792;4.372;2023-04-03T05:38:42;5.00;99.90
24011;DHT22;12217;50.792;4.372;2023-04-03T05:41:08;5.20;99.90
24011;DHT22;12217;50.792;4.372;2023-04-03T05:43:33;5.20;99.90
24011;DHT22;12217;50.792;4.372;2023-04-03T05:46:00;5.20;99.90
24011;DHT22;12217;50.792;4.372;2023-04-03T05:48:25;5.10;99.90
24011;DHT22;12217;50.792;4.372;2023-04-03T05:50:51;5.10;99.90
24011;DHT22;12217;50.792;4.372;2023-04-03T05:53:27;5.20;99.90
24011;DHT22;12217;50.792;4.372;2023-04-03T05:55:53;5.20;99.90
24011;DHT22;12217;50.792;4.372;2023-04-03T05:58:19;5.20;99.90
24011;DHT22;12217;50.792;4.372;2023-04-03T06:00:45;5.30;99.90
24011;DHT22;12217;50.792;4.372;2023-04-03T06:03:10;5.30;99.90
24011;DHT22;12217;50.792;4.372;2023-04-03T06:05:36;5.30;99.90
24011;DHT22;12217;50.792;4.372;2023-04-03T06:08:02;5.30;99.90
24011;DHT22;12217;50.792;4.372;2023-04-03T06:10:28;5.40;99.90
24011;DHT22;12217;50.792;4.372;2023-04-03T06:12:54;5.40;99.90
24011;DHT22;12217;50.792;4.372;2023-04-03T06:15:20;5.40;99.90
24011;DHT22;12217;50.792;4.372;2023-04-03T06:17:46;5.50;99.90
24011;DHT22;12217;50.792;4.372;2023-04-03T06:20:12;5.50;99.90
24011;DHT22;12217;50.792;4.372;2023-04-03T06:22:38;5.60;99.90
24011;DHT22;12217;50.792;4.372;2023-04-03T06:25:04;5.60;99.90
24011;DHT22;12217;50.792;4.372;2023-04-03T06:27:30;5.70;99.90
24011;DHT22;12217;50.792;4.372;2023-04-03T06:29:56;5.70;99.90
24011;DHT22;12217;50.792;4.372;2023-04-03T06:32:21;5.80;99.90
24011;DHT22;12217;50.792;4.372;2023-04-03T06:34:47;5.80;99.90
24011;DHT22;12217;50.792;4.372;2023-04-03T06:37:18;5.90;99.90
24011;DHT22;12217;50.792;4.372;2023-04-03T06:39:45;5.90;99.90
24011;DHT22;12217;50.792;4.372;2023-04-03T06:42:11;6.00;99.90
24011;DHT22;12217;50.792;4.372;2023-04-03T06:44:36;6.10;99.90
24011;DHT22;12217;50.792;4.372;2023-04-03T06:47:02;6.20;99.90
24011;DHT22;12217;50.792;4.372;2023-04-03T06:49:28;6.30;99.90
24011;DHT22;12217;50.792;4.372;2023-04-03T06:51:54;6.30;99.90
24011;DHT22;12217;50.792;4.372;2023-04-03T06:54:21;6.40;99.90
24011;DHT22;12217;50.792;4.372;2023-04-03T06:56:47;6.50;99.90
24011;DHT22;12217;50.792;4.372;2023-04-03T06:59:13;6.60;99.90
24011;DHT22;12217;50.792;4.372;2023-04-03T07:01:41;6.60;99.90
24011;DHT22;12217;50.792;4.372;2023-04-03T07:04:07;6.60;99.90
24011;DHT22;12217;50.792;4.372;2023-04-03T07:06:34;6.70;99.90
24011;DHT22;12217;50.792;4.372;2023-04-03T07:09:00;6.90;99.90
24011;DHT22;12217;50.792;4.372;2023-04-03T07:11:26;6.80;99.90
24011;DHT22;12217;50.792;4.372;2023-04-03T07:13:52;6.70;99.90
24011;DHT22;12217;50.792;4.372;2023-04-03T07:16:18;6.70;99.90
24011;DHT22;12217;50.792;4.372;2023-04-03T07:18:45;6.80;99.90
24011;DHT22;12217;50.792;4.372;2023-04-03T07:21:11;6.90;99.90
24011;DHT22;12217;50.792;4.372;2023-04-03T07:23:38;7.00;99.90
24011;DHT22;12217;50.792;4.372;2023-04-03T07:26:03;7.10;99.90
24011;DHT22;12217;50.792;4.372;2023-04-03T07:28:29;7.10;99.90
24011;DHT22;12217;50.792;4.372;2023-04-03T07:31:16;7.10;99.90
24011;DHT22;12217;50.792;4.372;2023-04-03T07:33:43;7.20;99.90
24011;DHT22;12217;50.792;4.372;2023-04-03T07:36:09;7.20;99.90
24011;DHT22;12217;50.792;4.372;2023-04-03T07:38:36;7.20;99.90
24011;DHT22;12217;50.792;4.372;2023-04-03T07:41:03;7.30;99.90
24011;DHT22;12217;50.792;4.372;2023-04-03T07:43:29;7.40;99.90
24011;DHT22;12217;50.792;4.372;2023-04-03T07:45:55;7.50;99.90
24011;DHT22;12217;50.792;4.372;2023-04-03T07:48:22;7.50;99.90
24011;DHT22;12217;50.792;4.372;2023-04-03T07:50:48;7.70;99.90
24011;DHT22;12217;50.792;4.372;2023-04-03T07:53:14;7.70;99.90
24011;DHT22;12217;50.792;4.372;2023-04-03T07:55:42;7.80;99.90
24011;DHT22;12217;50.792;4.372;2023-04-03T07:58:10;7.90;99.90
24011;DHT22;12217;50.792;4.372;2023-04-03T08:00:36;8.00;99.90
24011;DHT22;12217;50.792;4.372;2023-04-03T08:03:02;8.00;99.90
24011;DHT22;12217;50.792;4.372;2023-04-03T08:05:27;8.00;99.90
24011;DHT22;12217;50.792;4.372;2023-04-03T08:07:53;8.10;99.90
24011;DHT22;12217;50.792;4.372;2023-04-03T08:10:19;8.10;99.90
24011;DHT22;12217;50.792;4.372;2023-04-03T08:12:46;8.20;99.90
24011;DHT22;12217;50.792;4.372;2023-04-03T08:15:12;8.30;99.90
24011;DHT22;12217;50.792;4.372;2023-04-03T08:17:38;8.30;99.90
24011;DHT22;12217;50.792;4.372;2023-04-03T08:20:05;8.40;99.90
24011;DHT22;12217;50.792;4.372;2023-04-03T08:22:32;8.50;99.90
24011;DHT22;12217;50.792;4.372;2023-04-03T08:24:58;8.60;99.90
24011;DHT22;12217;50.792;4.372;2023-04-03T08:27:24;8.70;99.90
24011;DHT22;12217;50.792;4.372;2023-04-03T08:29:50;8.80;99.90
24011;DHT22;12217;50.792;4.372;2023-04-03T08:32:16;8.80;99.90
24011;DHT22;12217;50.792;4.372;2023-04-03T08:34:43;9.40;99.90
24011;DHT22;12217;50.792;4.372;2023-04-03T08:37:09;10.00;99.90
